createdAt,value
2019-03-27T00:00:01.164Z,5.15
2019-03-27T00:02:35.598Z,5.07
2019-03-27T00:05:11.822Z,4.95
2019-03-27T00:07:44.648Z,4.85
2019-03-27T00:10:24.252Z,4.83
2019-03-27T00:12:59.412Z,4.69
2019-03-27T00:15:32.407Z,4.59
2019-03-27T00:18:05.266Z,4.43
2019-03-27T00:20:41.234Z,4.21
2019-03-27T00:23:14.080Z,4.11
2019-03-27T00:25:48.645Z,3.89
2019-03-27T00:28:25.916Z,3.77
2019-03-27T00:30:59.910Z,3.84
2019-03-27T00:33:39.801Z,3.76
2019-03-27T00:36:12.229Z,3.76
2019-03-27T00:38:45.847Z,3.69
2019-03-27T00:41:37.244Z,3.52
2019-03-27T00:44:10.344Z,3.38
2019-03-27T00:46:43.117Z,3.35
2019-03-27T00:49:15.943Z,3.44
2019-03-27T00:51:48.644Z,3.49
2019-03-27T00:54:22.503Z,3.55
2019-03-27T00:56:55.201Z,3.42
2019-03-27T00:59:27.904Z,3.29
2019-03-27T01:02:00.571Z,3.11
2019-03-27T01:04:33.226Z,2.99
2019-03-27T01:07:06.116Z,2.87
2019-03-27T01:09:39.081Z,2.82
2019-03-27T01:12:11.775Z,2.78
2019-03-27T01:14:44.564Z,2.71
2019-03-27T01:17:17.242Z,2.67
2019-03-27T01:19:50.033Z,2.60
2019-03-27T01:22:22.763Z,2.53
2019-03-27T01:24:55.460Z,2.43
2019-03-27T01:27:28.222Z,2.36
2019-03-27T01:30:00.920Z,2.27
2019-03-27T01:32:33.636Z,2.25
2019-03-27T01:35:06.470Z,2.22
2019-03-27T01:37:39.139Z,2.13
2019-03-27T01:40:13.362Z,2.08
2019-03-27T01:42:46.139Z,2.03
2019-03-27T01:45:18.911Z,1.99
2019-03-27T01:47:52.677Z,2.02
2019-03-27T01:50:25.517Z,2.02
2019-03-27T01:52:58.195Z,1.98
2019-03-27T01:55:30.903Z,1.97
2019-03-27T01:58:03.633Z,1.99
2019-03-27T02:00:36.407Z,1.93
2019-03-27T02:03:09.057Z,1.93
2019-03-27T02:05:41.840Z,1.87
2019-03-27T02:08:14.480Z,1.80
2019-03-27T02:10:47.255Z,1.80
2019-03-27T02:13:19.907Z,1.74
2019-03-27T02:16:05.924Z,1.69
2019-03-27T02:18:26.989Z,1.79
2019-03-27T02:20:59.763Z,1.71
2019-03-27T02:23:32.737Z,1.65
2019-03-27T02:26:05.499Z,1.65
2019-03-27T02:28:38.327Z,1.68
2019-03-27T02:34:58.361Z,1.66
2019-03-27T02:41:38.000Z,1.67
2019-03-27T02:44:10.691Z,1.68
2019-03-27T02:46:43.399Z,1.77
2019-03-27T02:49:16.120Z,1.73
2019-03-27T02:51:48.856Z,1.79
2019-03-27T02:54:21.672Z,2.08
2019-03-27T02:56:54.432Z,2.26
2019-03-27T02:59:27.116Z,2.36
2019-03-27T03:01:59.860Z,2.41
2019-03-27T03:04:33.833Z,2.42
2019-03-27T03:07:06.802Z,2.34
2019-03-27T03:09:39.572Z,2.24
2019-03-27T03:12:12.293Z,2.27
2019-03-27T03:14:45.068Z,2.38
2019-03-27T03:17:17.870Z,2.43
2019-03-27T03:19:50.663Z,2.48
2019-03-27T03:22:23.351Z,2.50
2019-03-27T03:24:56.055Z,2.50
2019-03-27T03:27:28.928Z,2.43
2019-03-27T03:30:01.791Z,2.36
2019-03-27T03:32:35.592Z,2.23
2019-03-27T03:35:08.630Z,2.20
2019-03-27T03:37:41.362Z,2.39
2019-03-27T03:40:16.094Z,2.48
2019-03-27T03:42:48.870Z,2.49
2019-03-27T03:45:21.648Z,2.48
2019-03-27T03:47:54.358Z,2.45
2019-03-27T03:50:44.777Z,2.45
2019-03-27T03:53:17.780Z,2.38
2019-03-27T03:55:51.628Z,2.38
2019-03-27T03:58:27.092Z,2.31
2019-03-27T04:01:02.047Z,2.25
2019-03-27T04:03:37.362Z,2.25
2019-03-27T04:06:10.034Z,2.16
2019-03-27T04:08:42.852Z,2.15
2019-03-27T04:11:15.652Z,2.07
2019-03-27T04:13:48.417Z,2.05
2019-03-27T04:16:21.150Z,2.04
2019-03-27T04:18:53.877Z,2.06
2019-03-27T04:21:27.092Z,2.03
2019-03-27T04:24:00.069Z,2.07
2019-03-27T04:26:33.984Z,2.09
2019-03-27T04:29:06.632Z,2.06
2019-03-27T04:31:39.754Z,2.09
2019-03-27T04:34:12.522Z,2.00
2019-03-27T04:36:45.316Z,2.00
2019-03-27T04:39:17.968Z,1.97
2019-03-27T04:41:50.679Z,2.02
2019-03-27T04:44:23.379Z,2.05
2019-03-27T04:46:56.174Z,2.05
2019-03-27T04:49:28.907Z,2.08
2019-03-27T04:52:01.657Z,2.10
2019-03-27T04:54:34.391Z,2.04
2019-03-27T04:57:08.082Z,2.02
2019-03-27T04:59:40.738Z,2.02
2019-03-27T05:02:13.438Z,2.07
2019-03-27T05:04:47.127Z,2.01
2019-03-27T05:07:22.624Z,2.00
2019-03-27T05:09:57.574Z,2.05
2019-03-27T05:12:30.602Z,2.15
2019-03-27T05:15:05.038Z,2.40
2019-03-27T05:17:45.644Z,2.62
2019-03-27T05:20:16.237Z,2.80
2019-03-27T05:22:49.490Z,2.91
2019-03-27T05:25:42.099Z,3.01
2019-03-27T05:28:15.979Z,3.07
2019-03-27T05:30:54.819Z,3.09
2019-03-27T05:33:32.851Z,3.11
2019-03-27T05:36:13.376Z,3.08
2019-03-27T05:38:47.287Z,3.04
2019-03-27T05:41:25.110Z,3.01
2019-03-27T05:43:58.391Z,3.07
2019-03-27T05:46:32.416Z,3.18
2019-03-27T05:49:07.963Z,3.30
2019-03-27T05:51:42.976Z,3.03
2019-03-27T05:54:15.979Z,3.74
2019-03-27T05:56:49.033Z,3.99
2019-03-27T05:59:21.803Z,4.26
2019-03-27T06:01:54.716Z,4.61
2019-03-27T06:04:27.407Z,4.99
2019-03-27T06:07:00.126Z,5.33
2019-03-27T06:09:33.949Z,5.67
2019-03-27T06:12:06.686Z,6.01
2019-03-27T06:14:39.353Z,6.01
2019-03-27T06:17:12.031Z,6.20
2019-03-27T06:19:44.761Z,6.74
2019-03-27T06:22:17.468Z,7.28
2019-03-27T06:24:50.213Z,7.58
2019-03-27T06:27:22.942Z,7.95
2019-03-27T06:29:55.633Z,8.07
2019-03-27T06:32:28.350Z,8.27
2019-03-27T06:35:01.245Z,8.48
2019-03-27T06:37:34.045Z,8.88
2019-03-27T06:40:09.505Z,9.08
2019-03-27T06:42:42.270Z,8.85
2019-03-27T06:45:15.549Z,8.79
2019-03-27T06:47:48.218Z,8.68
2019-03-27T06:50:20.991Z,8.63
2019-03-27T06:52:53.787Z,8.75
2019-03-27T06:55:26.741Z,8.80
2019-03-27T06:58:00.005Z,9.27
2019-03-27T07:00:39.754Z,9.83
2019-03-27T07:03:12.471Z,9.45
2019-03-27T07:05:45.214Z,9.61
2019-03-27T07:08:17.937Z,10.08
2019-03-27T07:10:50.753Z,10.02
2019-03-27T07:13:23.493Z,10.32
2019-03-27T07:15:56.146Z,10.67
2019-03-27T07:18:39.458Z,10.52
2019-03-27T07:21:03.450Z,9.90
2019-03-27T07:23:36.313Z,9.52
2019-03-27T07:26:08.977Z,9.17
2019-03-27T07:28:41.763Z,9.23
2019-03-27T07:31:14.450Z,9.65
2019-03-27T07:33:47.116Z,9.67
2019-03-27T07:36:19.797Z,9.45
2019-03-27T07:38:52.560Z,9.51
2019-03-27T07:41:25.291Z,9.45
2019-03-27T07:43:58.041Z,9.50
2019-03-27T07:46:30.790Z,9.66
2019-03-27T07:49:03.467Z,9.77
2019-03-27T07:51:36.148Z,9.80
2019-03-27T07:54:08.909Z,9.74
2019-03-27T07:56:41.631Z,9.54
2019-03-27T07:59:14.340Z,9.61
2019-03-27T08:01:47.013Z,9.62
2019-03-27T08:04:19.674Z,9.77
2019-03-27T08:06:52.387Z,9.77
2019-03-27T08:09:25.163Z,9.67
2019-03-27T08:11:57.891Z,9.84
2019-03-27T08:14:30.609Z,10.00
2019-03-27T08:17:03.405Z,9.73
2019-03-27T08:19:36.129Z,9.65
2019-03-27T08:22:08.893Z,9.44
2019-03-27T08:24:41.575Z,9.23
2019-03-27T08:27:14.624Z,9.16
2019-03-27T08:29:47.575Z,9.18
2019-03-27T08:32:20.642Z,9.33
2019-03-27T08:34:53.529Z,9.56
2019-03-27T08:37:26.636Z,9.75
2019-03-27T08:39:59.440Z,9.61
2019-03-27T08:42:32.095Z,9.40
2019-03-27T08:45:05.020Z,9.32
2019-03-27T08:47:37.744Z,9.33
2019-03-27T08:50:13.649Z,9.51
2019-03-27T08:52:46.400Z,9.78
2019-03-27T08:55:19.172Z,9.90
2019-03-27T08:57:52.052Z,10.05
2019-03-27T09:00:47.589Z,10.29
2019-03-27T09:03:20.805Z,10.39
2019-03-27T09:05:53.488Z,10.08
2019-03-27T09:08:26.142Z,10.11
2019-03-27T09:10:58.877Z,10.08
2019-03-27T09:13:31.690Z,10.24
2019-03-27T09:16:04.465Z,10.07
2019-03-27T09:18:37.263Z,9.89
2019-03-27T09:21:11.200Z,9.80
2019-03-27T09:23:45.690Z,9.75
2019-03-27T09:26:18.604Z,9.64
2019-03-27T09:28:51.313Z,9.54
2019-03-27T09:31:23.972Z,9.51
2019-03-27T09:33:56.756Z,9.33
2019-03-27T09:36:29.393Z,9.31
2019-03-27T09:39:02.148Z,9.26
2019-03-27T09:41:35.230Z,9.32
2019-03-27T09:44:07.894Z,9.51
2019-03-27T09:46:40.617Z,9.95
2019-03-27T09:49:13.402Z,10.07
2019-03-27T09:51:46.058Z,10.21
2019-03-27T09:54:18.773Z,10.53
2019-03-27T09:56:51.419Z,10.29
2019-03-27T09:59:24.108Z,10.15
2019-03-27T10:01:56.769Z,10.21
2019-03-27T10:04:29.481Z,10.17
2019-03-27T10:07:02.114Z,9.87
2019-03-27T10:09:34.838Z,10.24
2019-03-27T10:12:09.220Z,10.84
2019-03-27T10:14:42.030Z,10.60
2019-03-27T10:17:14.754Z,10.50
2019-03-27T10:20:02.757Z,10.83
2019-03-27T10:22:24.625Z,11.30
2019-03-27T10:24:57.327Z,11.66
2019-03-27T10:27:30.022Z,11.37
2019-03-27T10:30:02.761Z,10.85
2019-03-27T10:32:35.795Z,10.30
2019-03-27T10:35:09.081Z,9.90
2019-03-27T10:37:45.602Z,9.78
2019-03-27T10:40:18.133Z,9.74
2019-03-27T10:42:50.936Z,9.81
2019-03-27T10:45:23.753Z,9.79
2019-03-27T10:47:59.034Z,10.27
2019-03-27T10:50:32.083Z,10.89
2019-03-27T10:53:05.123Z,10.79
2019-03-27T10:55:39.173Z,10.30
2019-03-27T10:58:16.032Z,10.24
2019-03-27T11:00:49.207Z,10.82
2019-03-27T11:03:24.875Z,11.33
2019-03-27T11:06:00.993Z,11.15
2019-03-27T11:08:35.461Z,10.95
2019-03-27T11:11:11.695Z,11.00
2019-03-27T11:13:46.235Z,11.22
2019-03-27T11:16:21.179Z,11.41
2019-03-27T11:18:54.295Z,11.46
2019-03-27T11:21:27.283Z,11.52
2019-03-27T11:24:00.533Z,11.52
2019-03-27T11:26:33.407Z,11.43
2019-03-27T11:29:06.552Z,11.68
2019-03-27T11:31:39.369Z,11.99
2019-03-27T11:34:12.525Z,12.05
2019-03-27T11:36:45.403Z,11.49
2019-03-27T11:39:18.230Z,11.19
2019-03-27T11:41:51.085Z,11.16
2019-03-27T11:44:24.795Z,11.37
2019-03-27T11:47:01.079Z,11.40
2019-03-27T11:49:35.175Z,11.13
2019-03-27T11:52:08.335Z,10.91
2019-03-27T11:54:53.668Z,10.86
2019-03-27T11:57:29.928Z,10.88
2019-03-27T12:00:03.462Z,10.90
2019-03-27T12:02:40.232Z,10.81
2019-03-27T12:05:14.360Z,10.80
2019-03-27T12:07:49.639Z,11.22
2019-03-27T12:10:23.851Z,11.38
2019-03-27T12:12:57.083Z,11.25
2019-03-27T12:15:45.700Z,11.08
2019-03-27T12:18:20.708Z,10.93
2019-03-27T12:21:01.939Z,11.02
2019-03-27T12:23:40.998Z,11.30
2019-03-27T12:26:27.083Z,11.77
2019-03-27T12:29:00.749Z,11.83
2019-03-27T12:31:42.563Z,11.71
2019-03-27T12:34:15.925Z,11.67
2019-03-27T12:36:49.202Z,11.43
2019-03-27T12:39:22.442Z,11.95
2019-03-27T12:41:58.402Z,12.55
2019-03-27T12:44:33.132Z,13.01
2019-03-27T12:47:06.006Z,13.15
2019-03-27T12:49:38.954Z,13.28
2019-03-27T12:52:12.096Z,13.08
2019-03-27T12:54:45.388Z,13.23
2019-03-27T12:57:18.410Z,12.77
2019-03-27T12:59:53.593Z,12.64
2019-03-27T13:02:26.474Z,12.25
2019-03-27T13:05:04.378Z,12.21
2019-03-27T13:07:49.374Z,12.03
2019-03-27T13:10:15.250Z,11.89
2019-03-27T13:12:48.039Z,11.84
2019-03-27T13:15:20.986Z,11.89
2019-03-27T13:17:54.951Z,11.88
2019-03-27T13:20:27.717Z,12.02
2019-03-27T13:23:00.663Z,12.13
2019-03-27T13:25:33.550Z,12.27
2019-03-27T13:28:14.398Z,12.70
2019-03-27T13:30:47.630Z,12.69
2019-03-27T13:33:20.798Z,12.55
2019-03-27T13:35:55.601Z,12.42
2019-03-27T13:38:28.838Z,12.39
2019-03-27T13:41:02.158Z,12.36
2019-03-27T13:43:35.463Z,12.20
2019-03-27T13:46:08.871Z,12.23
2019-03-27T13:48:42.063Z,12.32
2019-03-27T13:51:15.237Z,12.28
2019-03-27T13:53:48.731Z,12.18
2019-03-27T13:56:22.019Z,12.06
2019-03-27T13:58:56.103Z,12.05
2019-03-27T14:01:29.891Z,12.16
2019-03-27T14:04:07.269Z,12.26
2019-03-27T14:06:40.594Z,12.12
2019-03-27T14:09:14.130Z,11.87
2019-03-27T14:11:47.550Z,11.86
2019-03-27T14:14:20.936Z,11.87
2019-03-27T14:17:07.442Z,11.78
2019-03-27T14:19:46.117Z,11.87
2019-03-27T14:22:21.974Z,11.94
2019-03-27T14:24:55.256Z,11.81
2019-03-27T14:27:29.922Z,11.78
2019-03-27T14:30:13.569Z,11.79
2019-03-27T14:32:46.784Z,11.72
2019-03-27T14:35:19.897Z,11.71
2019-03-27T14:37:52.748Z,11.42
2019-03-27T14:40:25.679Z,11.28
2019-03-27T14:42:58.764Z,11.22
2019-03-27T14:45:31.660Z,11.21
2019-03-27T14:48:05.638Z,11.28
2019-03-27T14:50:38.646Z,11.25
2019-03-27T14:53:12.036Z,11.27
2019-03-27T14:55:44.841Z,11.40
2019-03-27T14:58:17.769Z,11.47
2019-03-27T15:00:51.011Z,11.63
2019-03-27T15:03:23.919Z,11.62
2019-03-27T15:05:56.748Z,11.50
2019-03-27T15:08:32.868Z,11.53
2019-03-27T15:11:08.138Z,11.57
2019-03-27T15:13:44.013Z,11.52
2019-03-27T15:16:16.805Z,11.42
2019-03-27T15:19:10.835Z,11.40
2019-03-27T15:21:53.735Z,11.33
2019-03-27T15:24:29.944Z,11.26
2019-03-27T15:27:07.593Z,11.20
2019-03-27T15:29:49.821Z,11.23
2019-03-27T15:32:28.970Z,11.16
2019-03-27T15:35:03.594Z,11.19
2019-03-27T15:37:53.398Z,11.09
2019-03-27T15:40:46.958Z,11.19
2019-03-27T15:43:19.991Z,11.04
2019-03-27T15:45:52.941Z,10.99
2019-03-27T15:53:31.909Z,11.19
2019-03-27T15:57:32.359Z,11.14
2019-03-27T16:00:40.239Z,11.11
2019-03-27T16:04:11.848Z,11.19
2019-03-27T16:07:26.823Z,11.17
2019-03-27T16:14:06.722Z,10.97
2019-03-27T16:17:27.649Z,10.80
2019-03-27T16:20:36.077Z,10.68
2019-03-27T16:26:38.413Z,10.68
2019-03-27T16:29:36.737Z,10.67
2019-03-27T16:34:36.034Z,10.52
2019-03-27T16:36:27.067Z,10.49
2019-03-27T16:39:30.983Z,10.47
2019-03-27T16:42:55.578Z,10.39
2019-03-27T16:45:33.851Z,10.44
2019-03-27T16:48:24.670Z,10.43
2019-03-27T16:50:54.208Z,10.36
2019-03-27T16:54:15.614Z,10.34
2019-03-27T16:57:37.732Z,10.32
2019-03-27T17:04:03.345Z,10.54
2019-03-27T17:12:11.698Z,10.38
2019-03-27T17:15:27.440Z,10.09
2019-03-27T17:18:24.392Z,10.10
2019-03-27T17:25:21.817Z,10.14
2019-03-27T17:28:05.197Z,10.13
2019-03-27T17:30:59.733Z,10.10
2019-03-27T17:33:33.063Z,10.08
2019-03-27T17:40:09.029Z,10.02
2019-03-27T17:43:06.536Z,10.13
2019-03-27T17:45:41.492Z,10.03
2019-03-27T17:48:32.185Z,9.97
2019-03-27T17:51:22.244Z,9.95
2019-03-27T18:04:07.365Z,9.93
2019-03-27T18:06:49.396Z,9.82
2019-03-27T18:09:52.284Z,9.75
2019-03-27T18:12:50.164Z,9.88
2019-03-27T18:16:34.951Z,10.02
2019-03-27T18:20:47.153Z,9.80
2019-03-27T18:24:05.237Z,9.80
2019-03-27T18:27:08.122Z,9.69
2019-03-27T18:29:48.643Z,9.51
2019-03-27T18:33:07.484Z,9.54
2019-03-27T18:35:44.481Z,9.52
2019-03-27T18:39:07.621Z,9.45
2019-03-27T18:41:48.164Z,9.37
2019-03-27T21:09:10.662Z,8.80
2019-03-27T21:11:46.595Z,8.82
2019-03-27T21:14:21.414Z,8.86
2019-03-27T21:16:54.271Z,8.88
2019-03-27T21:19:27.262Z,8.87
2019-03-27T21:22:01.649Z,8.83
2019-03-27T21:24:34.498Z,8.82
2019-03-27T21:27:09.716Z,8.89
2019-03-27T21:29:42.561Z,8.90
2019-03-27T21:32:16.372Z,8.93
2019-03-27T21:34:51.642Z,8.93
2019-03-27T21:37:24.532Z,8.97
2019-03-27T21:39:57.423Z,8.96
2019-03-27T21:42:30.244Z,8.89
2019-03-27T21:45:03.207Z,8.84
2019-03-27T21:47:36.319Z,8.87
2019-03-27T21:50:17.282Z,8.87
2019-03-27T21:53:00.389Z,8.81
2019-03-27T21:55:41.862Z,8.81
2019-03-27T21:58:03.122Z,8.86
2019-03-27T22:00:42.770Z,8.88
2019-03-27T22:03:15.696Z,8.91
2019-03-27T22:05:48.534Z,8.93
2019-03-27T22:08:21.429Z,8.92
2019-03-27T22:10:54.091Z,8.95
2019-03-27T22:13:26.807Z,8.92
2019-03-27T22:15:59.441Z,8.96
2019-03-27T22:18:32.256Z,8.91
2019-03-27T22:21:05.177Z,8.45
2019-03-27T22:23:38.266Z,8.88
2019-03-27T22:26:10.945Z,8.91
2019-03-27T22:28:43.937Z,8.88
2019-03-27T22:31:16.773Z,8.91
2019-03-27T22:33:49.566Z,8.89
2019-03-27T22:36:22.626Z,8.89
2019-03-27T22:38:55.521Z,8.94
2019-03-27T22:41:28.213Z,8.93
2019-03-27T22:44:00.938Z,8.92
2019-03-27T22:46:34.831Z,8.95
2019-03-27T22:49:07.528Z,9.02
2019-03-27T22:51:40.460Z,9.03
2019-03-27T22:54:13.155Z,9.00
2019-03-27T22:56:45.845Z,9.08
2019-03-27T22:59:18.653Z,9.09
2019-03-27T23:01:51.365Z,9.15
2019-03-27T23:04:24.533Z,9.06
2019-03-27T23:06:57.259Z,9.07
2019-03-27T23:09:29.905Z,9.06
2019-03-27T23:12:02.667Z,9.03
2019-03-27T23:14:35.353Z,9.04
2019-03-27T23:17:08.113Z,8.94
2019-03-27T23:19:40.877Z,8.95
2019-03-27T23:22:13.630Z,8.91
2019-03-27T23:24:46.441Z,8.91
2019-03-27T23:27:19.245Z,8.89
2019-03-27T23:29:52.069Z,8.88
2019-03-27T23:32:24.961Z,8.92
2019-03-27T23:34:57.754Z,8.93
2019-03-27T23:37:31.565Z,9.19
2019-03-27T23:40:05.189Z,9.12
2019-03-27T23:42:37.973Z,9.21
2019-03-27T23:45:11.793Z,9.29
2019-03-27T23:47:44.748Z,9.26
2019-03-27T23:50:17.549Z,9.11
2019-03-27T23:52:50.212Z,9.14
2019-03-27T23:55:22.925Z,9.19
2019-03-27T23:57:55.629Z,9.14
